Tiempo atmosférico en la estación meteorológica de Reus Aeropuerto, Tarragona (71 m.)



Fecha
DESCASC
Temp. máxima en grados centígrados (hora)
DESCASC
Temp. mínima en grados centígrados (hora)
DESCASC
Temp. media en grados centígrados
DESCASC
Racha de viento máxima en m/sg (hora)
DESCASC
Velocidad máxima media en intervalos de 10 minutos(hora)
DESCASC
Precipitaciones diarias en mm
DESCASC
Precipitaciones de 00:00 a 06:00 en mm
DESCASC
Precipitaciones de 06:00 a 12:00 en mm
DESCASC
Precipitaciones de 12:00 a 18:00 en mm
DESCASC
Precipitaciones de 18:00 a 24:00 en mm
DESCASC
23-06-2019 28.4 (16:10) 18.5 (05:40) 23.4 8.33 (13:40) 5.83 (13:50) 0 0 0 0 0
22-06-2019 28.1 (12:40) 16.3 (05:40) 22.2 10.83 (14:30) 8.33 (14:30) 0 0 0 0 0
21-06-2019 27.9 (14:00) 18.5 (04:40) 23.2 8.89 (14:40) 4.72 (14:40) 0 0 0 0 0
20-06-2019 26.3 (11:30) 18.3 (00:00) 22.3 8.33 (15:10) 5.56 (18:10) 0 0 0 0 0
19-06-2019 -- (--) -- (--) -- -- (--) -- (--) -- 0 0 -- 0
18-06-2019 26 (14:30) 17.1 (00:00) 21.6 7.22 (16:20) 4.17 (17:40) 0 0 0 0 0
17-06-2019 26.4 (13:20) 14.2 (00:00) 20.3 7.78 (14:20) 4.72 (15:20) -- 0 -- -- 0
16-06-2019 -- (--) -- (--) -- -- (--) -- (--) -- 0 -- 0 0
15-06-2019 27.8 (16:10) 14.8 (00:00) 21.3 9.17 (17:10) 6.11 (16:40) 0 0 0 0 0
14-06-2019 25.7 (11:00) 14 (00:00) 19.9 14.44 (14:10) 10.28 (15:00) 0 0 0 0 0
13-06-2019 23.1 (13:50) 12.7 (00:00) 17.9 7.78 (12:00) 5.28 (14:50) 0 0 0 0 0
12-06-2019 21.8 (15:30) 9 (00:00) 15.4 8.33 (15:30) 5 (13:20) 0 0 0 0 0
11-06-2019 21.9 (00:00) 13.1 (00:00) 17.5 13.89 (00:40) 9.44 (00:50) 5.4 0.7 0.1 3.7 0.9
10-06-2019 29.8 (18:10) 13.4 (00:00) 21.6 12.78 (12:00) 10 (12:30) 0.4 0 0.4 0 0
09-06-2019 25.2 (16:50) 16.1 (00:00) 20.7 9.17 (17:20) 5.83 (14:40) 0 0 0 0 0
08-06-2019 24.2 (11:40) 13.7 (00:00) 19 9.72 (15:00) 5.28 (13:40) 0 0 0 0 0
07-06-2019 28.8 (17:10) 16.2 (00:00) 22.5 12.78 (14:10) 7.22 (16:40) 0 0 0 0 0
06-06-2019 22.7 (14:40) 12.8 (00:00) 17.8 9.72 (13:20) 6.39 (13:20) 0 0 0 0 0
05-06-2019 25.4 (14:10) 16.3 (00:00) 20.8 16.11 (16:40) 10.83 (20:30) 0 0 0 0 0
04-06-2019 24.4 (13:10) 15 (00:00) 19.7 7.78 (14:40) 4.17 (15:10) 0 0 0 0 0
03-06-2019 25.2 (14:10) 13.9 (00:00) 19.6 8.33 (15:50) 5.28 (15:50) 0 0 0 0 0
02-06-2019 24.9 (15:40) 14.5 (00:00) 19.7 8.33 (12:40) 5.56 (17:30) 0 0 0 0 0
01-06-2019 24.7 (13:40) 13.8 (00:00) 19.3 8.89 (13:30) 5.83 (12:20) 0 0 0 0 0
31-05-2019 25 (12:00) 13.8 (00:00) 19.4 7.78 (14:20) 5 (13:30) 0 0 0 0 0
30-05-2019 23.2 (16:30) 11.4 (00:00) 17.3 7.22 (12:40) 4.72 (12:40) 0 0 0 0 0
29-05-2019 -- (--) -- (--) -- -- (--) -- (--) -- 0 0 0 --
28-05-2019 26.5 (16:20) 14.8 (00:00) 20.7 15 (12:10) 10 (06:30) 0 0 0 0 0

Gráficas

Temp. máximas Temp. mínimas Temp. medias Precipitaciones Rachas de viento máximas Velocidades máximas media en intervalos de 10 minutos

Datos horarios

Fecha y hora oficial Temperatura (ºC) Velocidad del viento (km/h) Dirección del viento Racha (km/h) Dirección de racha Precipitación (mm) Presión (hPa) Tendencia (hPa) Humedad (%)
2019-06-26 23:00:00 24.5 6 Sudeste 13 Este 0 1011.6 0.9 58
2019-06-26 22:00:00 26 3 Este 15 Este 0 1011.3 1 52
2019-06-26 21:00:00 27.8 10 Este 24 Este 0 1011 0.6 46
2019-06-26 20:00:00 29.8 13 Este 26 Este 0 1010.7 0.2 44
2019-06-26 19:00:00 30.4 13 Sudeste 28 Sudeste 0 1010.3 -0.5 46
2019-06-26 18:00:00 32.3 20 Este 39 Este 0 1010.4 -0.5 39
2019-06-26 17:00:00 32.5 21 Sudeste 41 Este 0 1010.5 -0.7 41
2019-06-26 16:00:00 33.9 22 Este 41 Este 0 1010.8 -0.8 36
2019-06-26 15:00:00 33.5 30 Este 45 Este 0 1010.9 -0.4 35
2019-06-26 14:00:00 33.1 26 Este 46 Este 0 1011.2 0.6 36
2019-06-26 13:00:00 32.8 33 Este 52 Este 0 1011.6 1.2 37
2019-06-26 12:00:00 33 28 Este 50 Este 0 1011.3 1.2 37
2019-06-26 11:00:00 33.1 23 Este 37 Nordeste 0 1010.6 1.1 35
2019-06-26 10:00:00 31.2 17 Este 28 Nordeste 0 1010.4 1 38
2019-06-26 09:00:00 27.8 10 Este 21 Nordeste 0 1010.1 0.8 48
2019-06-26 08:00:00 22.8 9 Nordeste 13 Este 0 1009.5 0 73
2019-06-26 07:00:00 19.8 7 Norte 13 Nordeste 0 1009.4 -0.2 84
2019-06-26 06:00:00 19.2 8 Norte 13 Norte 0 1009.3 -0.4 92
2019-06-26 05:00:00 19.7 11 Norte 13 Noroeste 0 1009.5 -0.6 92
2019-06-26 04:00:00 20 6 Noroeste 9 Norte 0 1009.6 -0.5 94
2019-06-26 03:00:00 20.2 -- -- -- -- 0 1009.7 -0.3 95
2019-06-26 02:00:00 20.8 6 Oeste 11 Oeste 0 1010.1 0.3 95
2019-06-26 01:00:00 21.3 9 Oeste 11 Oeste 0 1010.1 1.1 94
2019-06-26 00:00:00 21.1 9 Sur 9 Sur 0 1010 1.2 93
2019-06-25 23:00:00 21.9 3 Nordeste 13 Norte 0 1009.8 1.2 92
2019-06-25 22:00:00 22.1 6 Este 26 Este 0 1009 0.7 93
2019-06-25 21:00:00 23.3 15 Este 28 Este 0 1008.8 0.6 86
2019-06-25 20:00:00 24.5 15 Este 26 Este 0 1008.6 0.6 79
2019-06-25 19:00:00 25.5 15 Este 26 Este 0 1008.3 0.1 74
2019-06-25 18:00:00 26.4 15 Sudeste 32 Sudeste 0 1008.2 -0.4 70
2019-06-25 17:00:00 27.8 20 Este 32 Sudeste 0 1008 -1 60
2019-06-25 16:00:00 28.3 17 Sudeste 30 Este 0 1008.2 -0.5 60
2019-06-25 15:00:00 28 16 Sudeste 33 Sudeste 0 1008.6 0.3 60
2019-06-25 14:00:00 27.5 22 Sudeste 41 Este 0 1009 0.7 63
2019-06-25 13:00:00 27.2 28 Sudeste 41 Sudeste 0 1008.7 0.1 64
2019-06-25 12:00:00 27.3 26 Este 35 Sudeste 0 1008.3 0.3 64
2019-06-25 11:00:00 25.2 14 Este 24 Este 0 1008.3 0.7 69
2019-06-25 10:00:00 23.8 11 Nordeste 24 Este 0 1008.6 1.6 71
2019-06-25 09:00:00 22.7 8 Este 15 Este 0 1008 1.5 76
2019-06-25 08:00:00 21.5 4 Oeste 8 Oeste 0 1007.6 1.5 81
2019-06-25 07:00:00 19.6 3 Noroeste 11 Oeste 0 1007 0.8 85
2019-06-25 06:00:00 19 8 Oeste 11 Oeste 0 1006.5 -0.3 87
2019-06-25 05:00:00 19.2 3 Nordeste 9 Norte 0 1006.1 -1 84
2019-06-25 04:00:00 19.2 5 Norte 11 Nordeste 0 1006.2 -1 84
2019-06-25 03:00:00 20 7 Norte 9 Noroeste 0 1006.8 -0.6 87
2019-06-25 02:00:00 20.7 3 Noroeste 9 Norte 0 1007.1 0.2 87
2019-06-25 01:00:00 20.8 5 Este 18 Este 0 1007.2 1.1 89
2019-06-25 00:00:00 21.4 10 Este 18 Este 0 1007.4 1.8 87
2019-06-24 23:00:00 21.6 7 Este 13 Nordeste 0 1006.9 1.6 83
2019-06-24 22:00:00 22.1 5 Este 18 Este 0 1006.1 1 80
2019-06-24 21:00:00 22.5 17 Este 30 Este 0 1005.6 0.4 82
2019-06-24 20:00:00 24.4 19 Este 37 Este 0 1005.3 0 68
2019-06-24 19:00:00 25.5 26 Este 41 Sudeste 0 1005.1 -0.4 56
2019-06-24 18:00:00 28.1 28 Este 45 Sudeste 0 1005.2 -0.3 37
2019-06-24 17:00:00 29.6 28 Este 46 Este 0 1005.3 -0.7 37
2019-06-24 16:00:00 30.4 30 Este 45 Este 0 1005.5 -1.2 33
2019-06-24 15:00:00 32.5 28 Este 42 Este 0 1005.5 -1.5 23
2019-06-24 14:00:00 30.8 24 Este 39 Este 0 1006 -1.1 33
2019-06-24 13:00:00 29 21 Este 35 Este 0 1006.7 -0.1 42
2019-06-24 12:00:00 28.1 21 Este 33 Este 0 1007 0.7 46
2019-06-24 11:00:00 27.5 19 Este 32 Sudeste 0 1007.1 1.2 44
2019-06-24 10:00:00 27.7 15 Este 22 Este 0 1006.8 1.5 39
2019-06-24 09:00:00 26.2 8 Este 17 Nordeste 0 1006.3 0.7 42
2019-06-24 08:00:00 21.3 7 Nordeste 15 Nordeste 0 1005.9 0 60
2019-06-24 07:00:00 21.1 11 Nordeste 18 Norte 0 1005.3 -1.1 60
2019-06-24 06:00:00 20.1 14 Norte 21 Norte 0 1005.6 -1.3 65
2019-06-24 05:00:00 19.9 14 Norte 21 Norte 0 1005.9 -1.6 83
2019-06-24 04:00:00 18.9 14 Norte 18 Norte 0 1006.4 -1.2 86
2019-06-24 03:00:00 18.6 9 Norte 13 Norte 0 1006.9 -0.1 90
2019-06-24 02:00:00 19.4 10 Norte 13 Norte 0 1007.5 1.1 89
2019-06-24 01:00:00 19.9 10 Norte 11 Norte 0 1007.6 2 88
2019-06-24 00:00:00 20.2 0 Calma 9 Sudoeste 0 1007 1.7 92
2019-06-23 23:00:00 21.1 8 Sudoeste 11 Oeste 0 1006.4 1.2 88
2019-06-23 22:00:00 22.1 5 Sur 9 Sur 0 1005.6 0.4 73
2019-06-23 21:00:00 24.1 8 Sur 15 Sudoeste 0 1005.3 0.1 63
2019-06-23 20:00:00 25.6 13 Sudoeste 26 Sur 0 1005.2 -0.5 60
2019-06-23 19:00:00 26.7 17 Sur 24 Sudoeste 0 1005.2 -0.5 54
2019-06-23 18:00:00 27.9 15 Sur 24 Sur 0 1005.2 -1 51
2019-06-23 17:00:00 27.4 15 Sur 28 Sur 0 1005.7 -0.6 59
2019-06-23 16:00:00 27.9 13 Sur 28 Sur 0 1005.7 -0.2 58
2019-06-23 15:00:00 27 13 Sur 30 Sudoeste 0 1006.2 -0.1 60
2019-06-23 14:00:00 27.4 18 Sur 30 Sur 0 1006.3 -0.2 61
2019-06-23 13:00:00 27.9 14 Sur 24 Sur 0 1005.9 -0.9 56
2019-06-23 12:00:00 26.8 13 Sudeste 21 Sudeste 0 1006.3 -0.4 64
2019-06-23 11:00:00 26.1 8 Sur 21 Este 0 1006.5 0.2 64
2019-06-23 10:00:00 24.5 7 Sur 13 Sur 0 1006.8 0.7 70
2019-06-23 09:00:00 22.4 3 Oeste 8 Norte 0 1006.7 0.9 82
2019-06-23 08:00:00 20.6 6 Norte 9 Norte 0 1006.3 0.5 90
2019-06-23 07:00:00 19.4 5 Nordeste 9 Nordeste 0 1006.1 0.2 94
2019-06-23 06:00:00 18.7 7 Norte 9 Norte 0 1005.8 -0.5 93
2019-06-23 05:00:00 18.9 8 Norte 9 Norte 0 1005.8 -0.8 92
2019-06-23 04:00:00 19.1 6 Norte 9 Norte 0 1005.9 -0.8 93
2019-06-23 03:00:00 19.5 5 Oeste 9 Oeste 0 1006.3 -0.5 92
2019-06-23 02:00:00 19.6 6 Sudoeste 9 Sudoeste 0 1006.6 -0.1 94
2019-06-23 01:00:00 19.7 5 Sudoeste 9 Sudoeste 0 1006.7 0.5 93
2019-06-23 00:00:00 20.2 5 Sudoeste 11 Sudoeste 0 1006.8 0.6 89
2019-06-22 23:00:00 20.6 8 Sur -- -- 0 1006.7 0.3 87
2019-06-22 22:00:00 21.1 8 Sudoeste 13 Sudoeste 0 1006.2 -0.1 83
2019-06-22 21:00:00 22 9 Sur 17 Sudoeste 0 1006.2 -0.3 79
2019-06-22 20:00:00 23.1 12 Sur 24 Sudoeste 0 1006.4 -0.1 71
2019-06-22 19:00:00 24.7 16 Sur 30 Sur 0 1006.3 -0.4 64
2019-06-22 18:00:00 25.4 22 Sur 33 Sur 0 1006.5 -0.3 62
2019-06-22 17:00:00 26.1 24 Sur 33 Sur 0 1006.5 -0.7 59
2019-06-22 16:00:00 26.9 24 Sur 33 Sur 0 1006.7 -0.7 54
2019-06-22 15:00:00 27.4 24 Sudoeste 39 Sudoeste 0 1006.8 -0.5 49
2019-06-22 14:00:00 26.4 23 Sur 33 Sudoeste 0 1007.2 -0.5 53
2019-06-22 13:00:00 27.4 19 Sur 26 Sudoeste 0 1007.4 -0.6 44
2019-06-22 12:00:00 27.6 15 Sur 24 Sur 0 1007.3 -0.5 37
2019-06-22 11:00:00 26.6 13 Sudoeste 22 Sudoeste 0 1007.7 0.2 37
2019-06-22 10:00:00 24.9 12 Oeste 21 Oeste 0 1008 0.7 42
2019-06-22 09:00:00 22.7 4 Sudeste 9 Sudeste 0 1007.8 0.5 54
2019-06-22 08:00:00 19.7 4 Este 11 Norte 0 1007.5 0 75
2019-06-22 07:00:00 16.4 8 Norte 15 Oeste 0 1007.3 -0.3 86
2019-06-22 06:00:00 16.9 8 Noroeste 13 Noroeste 0 1007.3 -0.3 85
2019-06-22 05:00:00 17 9 Noroeste 15 Sudoeste 0 1007.5 -0.5 88
2019-06-22 04:00:00 17.3 2 Oeste 9 Este 0 1007.6 -0.4 86
2019-06-22 03:00:00 18.5 7 Noroeste 13 Noroeste 0 1007.6 -0.4 84
2019-06-22 02:00:00 18.9 11 Noroeste 13 Noroeste 0 1008 0.2 82
2019-06-22 01:00:00 19.1 8 Noroeste 13 Noroeste 0 1008 1.2 80
2019-06-22 00:00:00 19.5 8 Norte 9 Norte 0 1008 1.6 80
2019-06-21 23:00:00 20.5 0 Calma 4 Norte 0 1007.8 1.7 78
2019-06-21 22:00:00 21.3 0 Calma 11 Sudeste 0 1006.8 0.8 74
2019-06-21 21:00:00 22.4 8 Sudeste 17 Este 0 1006.4 0.7 69
2019-06-21 20:00:00 23.6 10 Sudeste 18 Sudeste 0 1006.1 0.5 67
2019-06-21 19:00:00 23.9 9 Sudeste 21 Este 0 1006 0.4 67
2019-06-21 18:00:00 23.7 13 Sudeste 24 Sudeste 0 1005.7 -0.2 66
2019-06-21 17:00:00 24.7 14 Sudeste 26 Sudeste 0 1005.6 -0.5 62
2019-06-21 16:00:00 26.3 12 Sudeste 22 Sur 0 1005.6 -0.5 54
2019-06-21 15:00:00 26.3 14 Sudeste 32 Sudeste 0 1005.9 -0.1 56
2019-06-21 14:00:00 27.6 15 Sudoeste 24 Sudoeste 0 1006.1 0.1 54
2019-06-21 13:00:00 26.1 12 Sur 21 Sur 0 1006.1 -0.1 57
2019-06-21 12:00:00 26.3 10 Nordeste 21 Este 0 1006 0 52
2019-06-21 11:00:00 25.5 8 Nordeste 18 Nordeste 0 1006 0.3 55
2019-06-21 10:00:00 23.6 8 Oeste 15 Oeste 0 1006.2 0.7 65
2019-06-21 09:00:00 22.4 6 Oeste 11 Oeste 0 1006 0.8 71
2019-06-21 08:00:00 20.9 6 Nordeste 13 Norte 0 1005.7 0.5 76
2019-06-21 07:00:00 19.6 8 Norte 13 Norte 0 1005.5 0.3 80
2019-06-21 06:00:00 18.7 8 Norte 13 Norte 0 1005.2 0.3 82
2019-06-21 05:00:00 19 9 Nordeste 13 Nordeste 0 1005.2 -0.1 82
2019-06-21 04:00:00 19.4 9 Nordeste 13 Este 0 1005.2 0.1 82
2019-06-21 03:00:00 19.6 9 Norte 11 Norte 0 1004.9 -0.3 83
2019-06-21 02:00:00 19.7 4 Noroeste 8 Oeste 0 1005.3 0.3 84
2019-06-21 01:00:00 19.3 5 Oeste 8 Oeste 0 1005.1 0.5 86
2019-06-21 00:00:00 20.2 4 Noroeste 9 Norte 0 1005.2 1.7 83
2019-06-20 23:00:00 20.2 6 Nordeste 13 Nordeste 0 1005 0.9 84
2019-06-20 22:00:00 19.7 8 Este 13 Sudeste 0 1004.6 0.7 85
2019-06-20 21:00:00 21.5 9 Este 22 Este 0 1003.5 -0.8 75
2019-06-20 20:00:00 22.3 13 Este 24 Este 0 1004.1 -0.7 67
2019-06-20 19:00:00 24.4 15 Este 28 Nordeste 0 1003.9 -1.4 60
2019-06-20 18:00:00 24.5 16 Este 28 Este 0 1004.3 -1.2 65
2019-06-20 17:00:00 24.5 17 Este 28 Sudeste 0 1004.8 -0.8 64
2019-06-20 16:00:00 25.2 15 Sudeste 30 Sudeste 0 1005.3 -0.4 61
2019-06-20 15:00:00 25.6 13 Sur 26 Sur 0 1005.5 0.3 64
2019-06-20 14:00:00 25.6 14 Sudeste 22 Sudeste 0 1005.6 0.5 66
2019-06-20 13:00:00 25.2 15 Sudeste 28 Sudeste 0 1005.7 0.5 68
2019-06-20 12:00:00 25.3 19 Sudeste 28 Sudeste 0 1005.2 0.1 65
2019-06-20 11:00:00 25.8 15 Sudeste 28 Este 0 1005.1 0 61
2019-06-20 10:00:00 24 10 Este 21 Sudeste 0 1005.2 0.5 71
2019-06-20 09:00:00 22.3 9 Nordeste 15 Nordeste 0 1005.1 1 79
2019-06-20 08:00:00 20.7 5 Este 8 Este 0 1005.1 1.3 87
2019-06-20 07:00:00 18.4 4 Norte 5 Norte 0 1004.7 0.7 93
2019-06-20 06:00:00 19 4 Nordeste 9 Nordeste 0 1004.1 0 94
2019-06-20 05:00:00 19.9 9 Nordeste 11 Nordeste 0 1003.8 -0.4 92
2019-06-20 04:00:00 19.9 4 Nordeste 15 Nordeste 0 1004 -0.1 91
2019-06-20 03:00:00 20.2 9 Este 13 Este 0 1004.1 -0.1 92
2019-06-20 02:00:00 19.9 7 Nordeste 15 Este 0 1004.2 0.2 93
2019-06-20 01:00:00 19.8 11 Este 13 Este 0 1004.1 0.7 94
2019-06-20 00:00:00 19.9 4 Nordeste 8 Sudeste 0 1004.2 1.1 96
2019-06-19 23:00:00 20 5 Sur 9 Sur 0 1004 1.1 93
2019-06-19 22:00:00 21 6 Sudeste 13 Sudeste 0 1003.4 0.6 88
2019-06-19 21:00:00 23.3 9 Sudeste 13 Sudeste 0 1003.1 0 77
2019-06-19 20:00:00 24.8 9 Sudeste 15 Sur 0 1002.9 -- 69
2019-06-19 19:00:00 24.7 7 Sur 22 Sur 0 1002.8 -0.8 69
2019-06-19 18:00:00 25.1 11 Sudeste -- -- -- 1003.1 -0.9 71
2019-06-19 17:00:00 -- -- -- -- -- -- -- -- --
2019-06-19 16:00:00 25.8 12 Sudeste 26 Sudeste 0 1003.6 -0.5 67
2019-06-19 15:00:00 26.2 14 Sudeste 26 Sudeste 0 1004 -0.6 66
2019-06-19 14:00:00 26.2 15 Sur 28 Sur 0 1004.3 -0.2 66
2019-06-19 13:00:00 26.7 11 Sur 22 Sur 0 1004.1 -0.5 61
2019-06-19 12:00:00 25.7 12 Sur 24 Sur 0 1004.6 -0.1 63
2019-06-19 11:00:00 24.9 6 Sudeste 17 Sudoeste 0 1004.5 -0.1 66
2019-06-19 10:00:00 23.5 6 Sudeste 13 Sudeste 0 1004.6 0.1 69
2019-06-19 09:00:00 21.6 3 Sudeste 9 Norte 0 1004.7 0.4 79
2019-06-19 08:00:00 19.5 6 Norte 9 Norte 0 1004.6 0.3 86
2019-06-19 07:00:00 17 6 Norte 11 Norte 0 1004.5 0 95
2019-06-19 06:00:00 16.9 8 Norte 13 Norte 0 1004.3 -0.4 96
2019-06-19 05:00:00 16.9 9 Norte 15 Norte 0 1004.3 -0.6 95
2019-06-19 04:00:00 17.4 8 Norte 11 Norte 0 1004.5 -0.9 95
2019-06-19 03:00:00 17.3 8 Norte 9 Norte 0 1004.7 -0.7 93
2019-06-19 02:00:00 18.5 4 Nordeste 5 Nordeste 0 1004.9 -0.5 93
2019-06-19 01:00:00 18.4 0 Calma 8 Norte 0 1005.4 0.2 92
2019-06-19 00:00:00 18.9 4 Nordeste -- -- 0 1005.4 0.2 88
2019-06-18 23:00:00 19.2 2 Sudeste 8 Sudoeste 0 1005.4 0.3 90
2019-06-18 22:00:00 20 7 Sur 13 Sur 0 1005.2 0.1 85
2019-06-18 21:00:00 22.4 9 Sur 15 Sudoeste 0 1005.2 -0.1 70
2019-06-18 20:00:00 24 12 Sudoeste 22 Sudoeste 0 1005.1 -0.6 52
2019-06-18 19:00:00 24.8 11 Sur 21 Sur 0 1005.1 -0.9 64
2019-06-18 18:00:00 25.1 13 Sur 22 Sur 0 1005.3 -1.1 62
2019-06-18 17:00:00 24.1 13 Sur 26 Sur 0 1005.7 -0.7 70
2019-06-18 16:00:00 25.4 13 Sur 24 Sur 0 1006 -0.8 66
2019-06-18 15:00:00 25.6 11 Sur 22 Sur 0 1006.4 -0.5 62
2019-06-18 14:00:00 25.5 12 Sur 24 Sur 0 1006.4 -0.2 64
2019-06-18 13:00:00 25.1 14 Sur 22 Sudoeste 0 1006.8 0.1 59
2019-06-18 12:00:00 24 13 Sur 22 Sur 0 1006.9 0.1 58
2019-06-18 11:00:00 24.2 12 Sur 21 Sudeste 0 1006.6 0 65
2019-06-18 10:00:00 23.4 8 Sudeste 13 Sudeste 0 1006.7 0.4 71
2019-06-18 09:00:00 20.4 3 Este 9 Norte 0 1006.8 0.4 75
2019-06-18 08:00:00 18.2 3 Norte 8 Norte 0 1006.6 0.2 90
2019-06-18 07:00:00 17.5 6 Nordeste 13 Norte 0 1006.3 -0.5 89
2019-06-18 06:00:00 17.4 8 Norte 13 Norte 0 1006.4 -0.8 94
2019-06-18 05:00:00 17.5 10 Norte -- -- 0 1006.4 -1 96
2019-06-18 04:00:00 18.2 6 Norte 9 Norte 0 1006.8 -1 94
2019-06-18 03:00:00 18.1 6 Norte 11 Norte 0 1007.2 -0.6 91
2019-06-18 02:00:00 18 8 Norte 9 Norte 0 1007.4 -0.1 91
2019-06-18 01:00:00 18.4 3 Norte 5 Norte 0 1007.8 0.8 90
2019-06-18 00:00:00 18.3 4 Sudeste 8 Sudoeste 0 1007.8 1.1 91
2019-06-17 23:00:00 18.8 5 Oeste 11 Sur 0 1007.5 0.6 90
2019-06-17 22:00:00 19.7 10 Sur 11 Sur 0 1007 0.3 85
2019-06-17 21:00:00 22.6 8 Sur 15 Sur 0 1006.7 -0.1 66
2019-06-17 20:00:00 23.8 9 Sur 22 Sudoeste 0 1006.9 -0.2 60
2019-06-17 19:00:00 24.6 13 Sudoeste 22 Sudoeste 0 1006.7 -0.7 58
2019-06-17 18:00:00 24.8 14 Sudoeste 26 Sur 0 1006.8 -0.9 57
2019-06-17 17:00:00 25.2 14 Sur 26 Sur 0 1007.1 -0.7 60
2019-06-17 16:00:00 25.3 13 Sur 28 Sur 0 1007.4 -0.3 62
2019-06-17 15:00:00 25.4 14 Sur 28 Sur -- 1007.7 -0.1 63
2019-06-17 14:00:00 25.5 15 Sur 26 Sur -- 1007.8 -0.2 60
2019-06-17 13:00:00 26.1 13 Sur 24 Sur -- 1007.7 -0.8 56
2019-06-17 12:00:00 25.1 10 Sur 18 Sur -- 1007.8 -1 60
2019-06-17 11:00:00 24.3 6 Sur 15 Sudoeste 0 1008 -0.7 63
2019-06-17 10:00:00 22.3 6 Sudoeste 13 Sudoeste 0 1008.5 0.1 71
2019-06-17 09:00:00 19.9 3 Este 11 Nordeste 0 1008.8 0.7 81
2019-06-17 08:00:00 17.9 9 Nordeste 11 Nordeste 0 1008.7 0.5 81
2019-06-17 07:00:00 16.2 6 Norte 9 Norte 0 1008.4 0.5 88
2019-06-17 06:00:00 16.1 9 Noroeste 11 Noroeste 0 1008.1 -0.4 84
2019-06-17 05:00:00 14.4 7 Nordeste 15 Norte 0 1008.2 -0.7 86
2019-06-17 04:00:00 16.4 12 Norte 17 Norte 0 1007.9 -1.1 82
2019-06-17 03:00:00 16.4 11 Norte 13 Norte 0 1008.5 -0.9 83
2019-06-17 02:00:00 16.8 8 Norte 9 Norte 0 1008.9 -0.2 84
2019-06-17 01:00:00 18 4 Norte 8 Oeste 0 1009 -0.1 87
2019-06-17 00:00:00 17.9 6 Sur 11 Sur 0 1009.4 0.4 89
2019-06-16 23:00:00 18.4 10 Sur 11 Sudoeste 0 1009.1 0 86
2019-06-16 22:00:00 19.5 7 Sudoeste 18 Sudoeste 0 1009.1 -0.1 78
2019-06-16 21:00:00 20.5 11 Sudoeste 21 Sudoeste 0 1009 -0.1 69
2019-06-16 20:00:00 21.2 15 Sudoeste 26 Sudoeste 0 1009.1 -0.9 62
2019-06-16 19:00:00 22.4 18 Sudoeste 28 Sudoeste 0 1009.2 -1.2 62
2019-06-16 18:00:00 23.3 14 Sur 35 Sudoeste 0 1009.1 -1.7 62
2019-06-16 17:00:00 23.8 19 Sur 30 Sudoeste 0 1010 -1.3 61
2019-06-16 16:00:00 24.6 18 Sur 32 Sur 0 1010.4 -1.1 56
2019-06-16 15:00:00 24.9 19 Sur 33 Sur 0 1010.8 -0.7 54
2019-06-16 14:00:00 24.8 24 Sur 32 Sur 0 1011.3 -- 51
2019-06-16 13:00:00 25.2 19 Sur 30 Sur 0 1011.5 -0.1 50
2019-06-16 12:00:00 25 18 Sur -- -- -- 1011.5 -0.1 51
2019-06-16 11:00:00 -- -- -- -- -- -- -- -- --
2019-06-16 10:00:00 23.5 11 Sudoeste 22 Sudoeste 0 1011.6 0.4 55
2019-06-16 09:00:00 21.6 5 Sudoeste 13 Sudoeste 0 1011.6 0.5 64
2019-06-16 08:00:00 18.4 5 Nordeste 9 Norte 0 1011.5 0.3 79
2019-06-16 07:00:00 15.3 7 Norte 11 Norte 0 1011.2 -0.3 90
2019-06-16 06:00:00 15.1 11 Norte 13 Norte 0 1011.1 -0.7 91
2019-06-16 05:00:00 14.9 7 Norte 11 Nordeste 0 1011.2 -0.8 91
2019-06-16 04:00:00 15.7 5 Noroeste 11 Noroeste 0 1011.5 -0.8 88
2019-06-16 03:00:00 16.4 4 Norte 9 Norte 0 1011.8 -0.2 87
2019-06-16 02:00:00 16.8 9 Noroeste 9 Noroeste 0 1012 0.5 88
2019-06-16 01:00:00 17.5 5 Norte 9 Norte 0 1012.3 2 87
2019-06-16 00:00:00 18.1 4 Nordeste 9 Norte 0 1012 2.8 86
2019-06-15 23:00:00 18.4 6 Nordeste 18 Este 0 1011.5 3.1 88
2019-06-15 22:00:00 18.8 12 Este 26 Este 0 1010.3 2.6 91
2019-06-15 21:00:00 20.1 13 Este 26 Este 0 1009.2 1.9 83
2019-06-15 20:00:00 21.9 15 Este 24 Este 0 1008.4 1.2 75
2019-06-15 19:00:00 23.9 14 Sudeste 24 Sudeste 0 1007.7 1 63
2019-06-15 18:00:00 24.9 14 Sur 33 Sudeste 0 1007.3 0.4 53
2019-06-15 17:00:00 25.8 22 Sudeste 30 Sudeste 0 1007.2 0.1 48
2019-06-15 16:00:00 27.5 14 Sudeste 24 Sur 0 1006.7 -0.6 42
2019-06-15 15:00:00 27.3 14 Sur 30 Sudeste 0 1006.9 -0.3 43
2019-06-15 14:00:00 26.7 19 Sudeste 30 Sudeste 0 1007.1 -0.2 48
2019-06-15 13:00:00 26.1 19 Sudeste 24 Sudeste 0 1007.3 0.1 52
2019-06-15 12:00:00 25.3 16 Sudeste 22 Sudeste 0 1007.2 0.3 58
2019-06-15 11:00:00 24.2 14 Sudeste 21 Este 0 1007.3 1.2 62
2019-06-15 10:00:00 22.6 11 Sudeste 18 Sudeste 0 1007.2 1.8 66
2019-06-15 09:00:00 20.8 11 Sudeste 15 Sur 0 1006.9 2.3 80
2019-06-15 08:00:00 17.8 5 Norte 11 Norte 0 1006.1 1.3 88
2019-06-15 07:00:00 14.9 3 Este 11 Nordeste 0 1005.4 0.5 95
2019-06-15 06:00:00 16.3 4 Norte 15 Norte 0 1004.6 -0.1 91
2019-06-15 05:00:00 16.1 11 Norte 15 Norte 0 1004.8 0.2 87
2019-06-15 04:00:00 16 12 Norte -- -- 0 1004.9 0.4 87
2019-06-15 03:00:00 16.5 9 Norte -- -- 0 1004.7 0.2 83
2019-06-15 02:00:00 16.1 8 Norte 13 Norte 0 1004.6 0.3 84
2019-06-15 01:00:00 16.7 10 Norte 21 Norte 0 1004.5 0.9 82
2019-06-15 00:00:00 16.1 10 Este 11 Este 0 1004.5 1.5 85
2019-06-14 23:00:00 18.5 0 Calma -- -- 0 1004.3 1.8 74
2019-06-14 22:00:00 19.3 6 Sur 8 Sur 0 1003.6 1.7 69
2019-06-14 21:00:00 20.8 8 Sur 21 Sur 0 1003 1.1 64
2019-06-14 20:00:00 22.2 13 Sur 26 Sudoeste 0 1002.5 0.5 62
2019-06-14 19:00:00 23.1 19 Sudoeste 32 Sudoeste 0 1001.9 0.3 57
2019-06-14 18:00:00 23.4 22 Sudoeste 33 Sudoeste 0 1001.9 0.5 60
2019-06-14 17:00:00 24 23 Sudoeste 39 Sudoeste 0 1002 0.9 60
2019-06-14 16:00:00 24.3 28 Sudoeste 46 Sudoeste 0 1001.6 0.5 58
2019-06-14 15:00:00 22.5 37 Sudoeste 52 Sur 0 1001.4 0.4 62
2019-06-14 14:00:00 24.5 35 Sudoeste 48 Sudoeste 0 1001.1 0.3 53
2019-06-14 13:00:00 24.1 33 Sur 46 Sudoeste 0 1001.1 0.4 51
2019-06-14 12:00:00 24 26 Sur 37 Sur 0 1001 0.9 47
2019-06-14 11:00:00 25.5 8 Sudeste 18 Oeste 0 1000.8 1.1 42
2019-06-14 10:00:00 23.6 7 Sudoeste 17 Oeste 0 1000.7 1.2 51
2019-06-14 09:00:00 20.7 12 Oeste 28 Oeste 0 1000.1 0.9 55
2019-06-14 08:00:00 18.5 5 Sudoeste 11 Oeste 0 999.7 0.7 71
2019-06-14 07:00:00 17.4 5 Sudoeste 9 Oeste 0 999.5 -0.5 69
2019-06-14 06:00:00 17.6 12 Oeste 15 Oeste 0 999.2 -1.3 62
2019-06-14 05:00:00 20.3 3 Norte 22 Norte 0 999 -3.7 53
2019-06-14 04:00:00 20.3 12 Norte 26 Nordeste 0 1000 -3.2 49
2019-06-14 03:00:00 19.3 18 Norte 26 Nordeste 0 1000.5 -3.5 46
2019-06-14 02:00:00 15.4 5 Nordeste 15 Este 0 1002.7 -1.2 59
2019-06-14 01:00:00 14.8 7 Nordeste 15 Este 0 1003.2 -0.3 76
2019-06-14 00:00:00 16 9 Noroeste 11 Noroeste 0 1004 0.7 80
2019-06-13 23:00:00 16.7 8 Noroeste 11 Noroeste 0 1003.9 0.8 83
2019-06-13 22:00:00 17.2 0 Calma 9 Sur 0 1003.5 0.3 80
2019-06-13 21:00:00 18.7 5 Sudeste 15 Sudeste 0 1003.3 -0.4 66
2019-06-13 20:00:00 19.8 12 Sudeste 21 Sudeste 0 1003.1 -1.1 60
2019-06-13 19:00:00 21 14 Este 21 Sudeste 0 1003.2 -2.1 50
2019-06-13 18:00:00 21 14 Sudeste 22 Sudeste 0 1003.7 -1.2 52
2019-06-13 17:00:00 21.3 14 Este 24 Este 0 1004.2 -0.5 51
2019-06-13 16:00:00 20.6 13 Sudeste 26 Sudeste 0 1005.3 -0.1 66
2019-06-13 15:00:00 20.8 17 Sudeste 28 Este 0 1004.9 -1.5 57
2019-06-13 14:00:00 22.4 18 Sudeste 28 Sudeste 0 1004.7 -1.5 58
2019-06-13 13:00:00 22.5 14 Sudeste 28 Sudeste 0 1005.4 -0.9 56
2019-06-13 12:00:00 21.6 18 Sudeste 28 Sudeste 0 1006.4 0.5 58
2019-06-13 11:00:00 21.4 14 Sudeste 24 Sudeste 0 1006.2 0.4 56
2019-06-13 10:00:00 20.3 13 Este 21 Este 0 1006.3 0.8 58
2019-06-13 09:00:00 18.9 14 Nordeste 18 Nordeste 0 1005.9 0.5 61
2019-06-13 08:00:00 16.7 13 Norte 21 Norte 0 1005.8 0.1 73
2019-06-13 07:00:00 14.3 14 Norte 21 Norte 0 1005.5 -0.3 84
2019-06-13 06:00:00 13.7 14 Norte 21 Norte 0 1005.4 -0.7 84
2019-06-13 05:00:00 13.8 13 Norte 21 Norte 0 1005.7 -0.6 77
2019-06-13 04:00:00 13.5 14 Norte 18 Norte 0 1005.8 -0.8 76
2019-06-13 03:00:00 13.8 10 Norte 15 Norte 0 1006.1 -0.5 72
2019-06-13 02:00:00 13.9 13 Norte 18 Norte 0 1006.3 -0.4 71
2019-06-13 01:00:00 13.1 12 Norte 13 Norte 0 1006.6 0.3 83
2019-06-13 00:00:00 13.6 11 Noroeste -- -- 0 1006.6 0.7 78
2019-06-12 23:00:00 15.1 9 Norte 9 Norte 0 1006.7 1.1 77
2019-06-12 22:00:00 16.5 0 Calma 9 Sudoeste 0 1006.3 0.9 65
2019-06-12 21:00:00 18.2 7 Sur 17 Sudoeste 0 1005.9 0.3 59
2019-06-12 20:00:00 19.5 10 Sur 21 Sudoeste 0 1005.6 0 51
2019-06-12 19:00:00 20.3 10 Sur 26 Sur 0 1005.4 -0.3 51
2019-06-12 18:00:00 20.9 12 Sur 24 Sur 0 1005.6 -0.3 48
2019-06-12 17:00:00 21.2 13 Sur 26 Sur 0 1005.6 -0.6 46
2019-06-12 16:00:00 21.5 16 Sur 30 Sur 0 1005.7 -0.7 44
2019-06-12 15:00:00 21.2 14 Sur 28 Sur 0 1005.9 -0.8 46
2019-06-12 14:00:00 20.8 16 Sudeste 26 Sudeste 0 1006.2 -0.7 48
2019-06-12 13:00:00 20.8 15 Sudeste 24 Sudeste 0 1006.4 -0.5 47
2019-06-12 12:00:00 20.2 6 Nordeste 13 Sudeste 0 1006.7 0 44
2019-06-12 11:00:00 18.5 5 Este 13 Sudeste 0 1006.9 0.5 53
2019-06-12 10:00:00 16.8 4 Sur 13 Sudoeste 0 1006.9 1.2 58
2019-06-12 09:00:00 15.3 5 Sur 9 Sudeste 0 1006.7 1.4 79
2019-06-12 08:00:00 12.7 0 Calma 5 Este 0 1006.4 1.2 89
2019-06-12 07:00:00 9.3 4 Norte 15 Nordeste 0 1005.7 0.4 97
2019-06-12 06:00:00 9.7 11 Norte 15 Norte 0 1005.3 -0.4 99
2019-06-12 05:00:00 10.5 6 Norte 9 Norte 0 1005.2 -0.8 99
2019-06-12 04:00:00 11.3 5 Norte 11 Noroeste 0 1005.3 -1 98
2019-06-12 03:00:00 12.1 8 Norte 9 Norte 0 1005.7 -0.5 99
2019-06-12 02:00:00 12.3 5 Norte 9 Norte 0 1006 -0.1 98
2019-06-12 01:00:00 13.3 5 Noroeste 9 Norte 0 1006.3 1.1 96
2019-06-12 00:00:00 13.6 6 Este -- -- 0 1006.2 1.8 95
2019-06-11 23:00:00 13.2 2 Este -- -- 0 1006.1 2 97
2019-06-11 22:00:00 14.1 5 Norte 15 Norte 0 1005.2 1.4 94
2019-06-11 21:00:00 14.7 6 Norte 13 Norte 0 1004.4 0.6 91
2019-06-11 20:00:00 14.7 6 Nordeste 13 Sudeste 0 1004.1 0.8 90
2019-06-11 19:00:00 14.6 10 Este 21 Sudeste 0.9 1003.8 0.2 95
2019-06-11 18:00:00 14.7 10 Sudeste 17 Sudeste 0.9 1003.8 0.3 93
2019-06-11 17:00:00 15.4 9 Sudeste 13 Sudeste 0 1003.3 -0.3 85
2019-06-11 16:00:00 15.5 9 Sudeste 17 Sudeste 0 1003.6 0.5 81
2019-06-11 15:00:00 15.1 10 Este 15 Este 0.1 1003.5 0.7 87
2019-06-11 14:00:00 14.5 7 Sudeste 32 Sudoeste 2.6 1003.6 0.8 88
2019-06-11 13:00:00 15.5 13 Oeste 26 Oeste 0.1 1003.1 0.3 73
2019-06-11 12:00:00 16.8 17 Oeste 30 Oeste 0 1002.8 0.4 65
2019-06-11 11:00:00 16.7 7 Norte 22 Oeste 0.1 1002.8 0.5 72
2019-06-11 10:00:00 16.1 8 Este 13 Norte 0 1002.8 0.8 68
2019-06-11 09:00:00 16 6 Este 11 Este 0 1002.4 0.5 69
2019-06-11 08:00:00 15.8 6 Sur 13 Sur 0 1002.3 0.2 63
2019-06-11 07:00:00 15.3 6 Sudeste 9 Este 0 1002 -0.7 72
2019-06-11 06:00:00 15.6 3 Este 9 Nordeste 0 1001.9 -1.3 74
2019-06-11 05:00:00 15.9 7 Norte 15 Oeste 0 1002.1 -1.2 72
2019-06-11 04:00:00 16.2 11 Norte 24 Oeste 0 1002.7 -0.6 79
2019-06-11 03:00:00 15.6 21 Oeste 41 Oeste 0.7 1003.2 0 69
2019-06-11 02:00:00 20.1 22 Oeste 35 Noroeste 0 1003.3 0.3 39
2019-06-11 01:00:00 20.8 29 Oeste 50 Oeste 0 1003.3 0.9 38
2019-06-11 00:00:00 21.9 23 Oeste 45 Oeste 0 1003.2 1.5 36
2019-06-10 23:00:00 23 22 Oeste 32 Oeste 0 1003 1.6 36
2019-06-10 22:00:00 21.6 14 Oeste 32 Sudoeste 0 1002.4 0.9 59
2019-06-10 21:00:00 21.9 17 Sudoeste 33 Sudoeste 0 1001.7 0.5 62
2019-06-10 20:00:00 21.9 23 Sudoeste 39 Sudoeste 0 1001.4 0 61
2019-06-10 19:00:00 23.4 23 Sudoeste 39 Sudoeste 0 1001.5 -0.6 57
2019-06-10 18:00:00 29.6 21 Oeste 37 Oeste 0 1001.2 -1.6 27
2019-06-10 17:00:00 29.1 21 Oeste 37 Oeste 0 1001.4 -2.3 31
2019-06-10 16:00:00 29 22 Oeste 37 Oeste 0 1002.1 -1.9 32
2019-06-10 15:00:00 27.8 22 Oeste 39 Oeste 0 1002.8 -1.8 33
2019-06-10 14:00:00 27.1 21 Oeste 39 Oeste 0 1003.7 -1.2 35
2019-06-10 13:00:00 25.5 30 Oeste 46 Oeste 0 1004 -0.8 38
2019-06-10 12:00:00 24.1 32 Oeste 46 Oeste 0 1004.6 -0.2 42
2019-06-10 11:00:00 22.7 26 Oeste 37 Oeste 0 1004.9 0.5 48
2019-06-10 10:00:00 20.1 5 Sudoeste 24 Oeste 0 1004.8 0.9 57
2019-06-10 09:00:00 18.2 21 Oeste 32 Noroeste 0.4 1004.8 1.3 68
2019-06-10 08:00:00 18.1 17 Noroeste 33 Oeste 0 1004.4 0.8 60
2019-06-10 07:00:00 16.9 21 Oeste 32 Noroeste 0 1003.9 -0.1 65
2019-06-10 06:00:00 17.4 22 Oeste 37 Noroeste 0 1003.5 -1.2 65
2019-06-10 05:00:00 17.9 16 Oeste 32 Oeste 0 1003.6 -1.5 64
2019-06-10 04:00:00 13.9 13 Oeste 24 Oeste 0 1004 -1.1 70
2019-06-10 03:00:00 13.9 6 Nordeste 11 Este 0 1004.7 -0.4 75
2019-06-10 02:00:00 15.7 9 Norte 11 Noroeste 0 1005.1 0 67
2019-06-10 01:00:00 16.5 8 Norte 15 Norte 0 1005.1 0.4 72
2019-06-10 00:00:00 16.7 7 Norte -- -- 0 1005.1 0.5 79
2019-06-09 23:00:00 17.3 2 Noroeste -- -- 0 1005.1 0.9 77
2019-06-09 22:00:00 18 8 Sur 17 Sur 0 1004.7 0.6 76
2019-06-09 21:00:00 21.2 11 Sur 17 Sur 0 1004.6 0.5 42
2019-06-09 20:00:00 23.1 11 Sudoeste 22 Sudoeste 0 1004.2 0.4 36
2019-06-09 19:00:00 23.2 17 Sur 24 Sur 0 1004.1 -0.3 32
2019-06-09 18:00:00 23.2 13 Sur 33 Sudoeste 0 1004.1 0 31
2019-06-09 17:00:00 24.8 13 Sudoeste 21 Sudoeste 0 1003.8 -2.1 29
2019-06-09 16:00:00 23.8 14 Sur 21 Sur 0 1004.4 -1.2 30
2019-06-09 15:00:00 22.6 10 Oeste 32 Sur 0 1004.1 -2.8 36
2019-06-09 14:00:00 24.1 12 Sudoeste 21 Sudoeste 0 1005.9 -1.4 32
2019-06-09 13:00:00 23.5 9 Noroeste 21 Oeste 0 1005.6 -1.6 30
2019-06-09 12:00:00 23.8 6 Sur 17 Sudeste 0 1006.9 -0.5 30
2019-06-09 11:00:00 24.2 14 Sudeste 21 Sudeste 0 1007.3 -0.6 27
2019-06-09 10:00:00 21.6 5 Este 13 Nordeste 0 1007.2 0.3 43
2019-06-09 09:00:00 19 5 Nordeste 13 Norte 0 1007.4 0.5 52
2019-06-09 08:00:00 17.4 4 Este 13 Noroeste 0 1007.9 0.5 54
2019-06-09 07:00:00 16.5 3 Norte 11 Este 0 1006.9 -1.6 53
2019-06-09 06:00:00 17.6 3 Noroeste 9 Nordeste 0 1006.9 -2.4 43
2019-06-09 05:00:00 18.7 7 Nordeste 17 Norte 0 1007.4 -3 35
2019-06-09 04:00:00 17.4 9 Norte 15 Norte 0 1008.5 -3 41
2019-06-09 03:00:00 17.3 8 Norte 13 Norte 0 1009.3 -2.7 49
2019-06-09 02:00:00 18.2 10 Norte 13 Norte 0 1010.4 -2 49
2019-06-09 01:00:00 19 5 Norte 9 Norte 0 1011.5 -0.7 51
2019-06-09 00:00:00 19 6 Norte 11 Norte 0 1012 -0.2 54
2019-06-08 23:00:00 18.6 5 Norte 8 Norte 0 1012.4 0.3 59
2019-06-08 22:00:00 17.6 7 Este 9 Este 0 1012.2 0 61
2019-06-08 21:00:00 19 7 Este 13 Este 0 1012.2 -0.4 55
2019-06-08 20:00:00 20.2 10 Sudeste 18 Sudeste 0 1012.1 -1 54
2019-06-08 19:00:00 21.8 10 Sudeste 22 Sudeste 0 1012.2 -1.7 51
2019-06-08 18:00:00 22.6 12 Sudeste 21 Sudeste 0 1012.6 -1.6 41
2019-06-08 17:00:00 22.5 9 Sudeste 21 Sudeste 0 1013.1 -1.2 49
2019-06-08 16:00:00 22.2 15 Sudeste 28 Sur 0 1013.9 -0.3 56
2019-06-08 15:00:00 22.6 19 Sur 35 Sudeste 0 1014.2 0.1 54
2019-06-08 14:00:00 23.2 18 Sur 30 Sur 0 1014.3 0 55
2019-06-08 13:00:00 23.9 15 Sudeste 24 Sur 0 1014.2 0 46
2019-06-08 12:00:00 23.8 17 Sudeste 24 Sudeste 0 1014.1 -0.3 47
2019-06-08 11:00:00 22.3 5 Sur 17 Sudeste 0 1014.3 0.1 58
2019-06-08 10:00:00 21.3 7 Sur 13 Sudoeste 0 1014.2 0.6 63
2019-06-08 09:00:00 19.7 6 Sur 13 Sur 0 1014.4 1.2 70
2019-06-08 08:00:00 17.1 5 Norte 11 Norte 0 1014.2 0.9 73
2019-06-08 07:00:00 13.8 7 Nordeste 13 Norte 0 1013.6 0.4 90
2019-06-08 06:00:00 14.3 9 Norte 11 Norte 0 1013.2 0.3 88
2019-06-08 05:00:00 15.2 3 Noroeste 5 Norte 0 1013.3 0.9 87
2019-06-08 04:00:00 15.8 5 Oeste 9 Noroeste 0 1013.2 1.4 87
2019-06-08 03:00:00 16.6 7 Oeste 13 Nordeste 0 1012.9 2.3 87
2019-06-08 02:00:00 17.3 8 Nordeste 24 Este 0 1012.4 2.5 87
2019-06-08 01:00:00 17.8 12 Este 30 Este 0 1011.8 2.9 84
2019-06-08 00:00:00 18.9 12 Noroeste 18 Norte 0 1010.6 2.9 38
2019-06-07 23:00:00 21 14 Noroeste 22 Norte 0 1009.9 3.1 32
2019-06-07 22:00:00 21.6 12 Norte 18 Norte 0 1008.9 2.9 32
2019-06-07 21:00:00 24.8 14 Norte 24 Norte 0 1007.7 2.2 25
2019-06-07 20:00:00 26.6 13 Noroeste 30 Oeste 0 1006.8 1.9 20
2019-06-07 19:00:00 27.7 15 Oeste 45 Noroeste 0 1006 1.2 22
2019-06-07 18:00:00 27.1 17 Oeste 41 Oeste 0 1005.5 0.9 23
2019-06-07 17:00:00 28.5 17 Oeste 37 Oeste 0 1004.9 0.5 24
2019-06-07 16:00:00 27.6 21 Noroeste 45 Oeste 0 1004.8 0.7 29
2019-06-07 15:00:00 27 17 Noroeste 46 Noroeste 0 1004.6 0.8 35
2019-06-07 14:00:00 26.3 22 Noroeste 37 Oeste 0 1004.4 0.9 39
2019-06-07 13:00:00 24.5 19 Sur 28 Sur 0 1004.1 0.8 63
2019-06-07 12:00:00 23.7 15 Sudoeste 24 Sudoeste 0 1003.8 0.8 65
2019-06-07 11:00:00 22.8 12 Sur 24 Sur 0 1003.5 0.9 67
2019-06-07 10:00:00 20.9 14 Sur 22 Sur 0 1003.3 1.3 75
2019-06-07 09:00:00 19.6 6 Sudoeste 13 Sur 0 1003 1.1 84
2019-06-07 08:00:00 18.6 7 Norte 11 Norte 0 1002.6 0.2 85
2019-06-07 07:00:00 17.1 8 Norte 15 Nordeste 0 1002 -0.4 90
2019-06-07 06:00:00 17.4 10 Nordeste 15 Nordeste 0 1001.9 -0.6 89
2019-06-07 05:00:00 16.8 10 Nordeste 13 Nordeste 0 1002.4 -0.6 91
2019-06-07 04:00:00 16.9 6 Norte 13 Norte 0 1002.4 -1.2 89
2019-06-07 03:00:00 16.7 7 Norte 18 Norte 0 1002.5 -1.2 91
2019-06-07 02:00:00 16.5 10 Norte 15 Nordeste 0 1003 -1.1 93
2019-06-07 01:00:00 16.3 10 Nordeste 15 Nordeste 0 1003.6 -0.3 95
2019-06-07 00:00:00 16.8 10 Nordeste 17 Nordeste 0 1003.7 -0.2 93
2019-06-06 23:00:00 16.9 8 Nordeste -- -- 0 1004.1 0.1 92
2019-06-06 22:00:00 17.3 5 Este 17 Sudeste 0 1003.9 -0.3 89
2019-06-06 21:00:00 17.9 11 Este 21 Sudeste 0 1003.9 -0.7 83
2019-06-06 20:00:00 19.5 12 Sudeste 22 Sudeste 0 1004 -0.9 76
2019-06-06 19:00:00 21.2 14 Sudeste 26 Este 0 1004.2 -1.5 68
2019-06-06 18:00:00 21.9 18 Sudeste 30 Sudeste 0 1004.6 -1.5 64
2019-06-06 17:00:00 22.1 16 Sudeste 28 Sudeste 0 1004.9 -1.4 62
2019-06-06 16:00:00 21.9 21 Sudeste 32 Sudeste 0 1005.7 -0.7 63
2019-06-06 15:00:00 22.3 18 Sudeste 30 Sudeste 0 1006.1 -0.3 63
2019-06-06 14:00:00 21.8 19 Sudeste 35 Sudeste 0 1006.3 0.2 68
2019-06-06 13:00:00 22.2 22 Sudeste 32 Sudeste 0 1006.4 0.4 64
2019-06-06 12:00:00 21.9 20 Sudeste 30 Sudeste 0 1006.4 0.4 60
2019-06-06 11:00:00 21.7 16 Sudeste 26 Sudeste 0 1006.1 0.3 51
2019-06-06 10:00:00 21.2 9 Este 18 Nordeste 0 1006 0.5 46
2019-06-06 09:00:00 18.9 13 Nordeste 21 Nordeste 0 1006 0.8 53
2019-06-06 08:00:00 15.3 10 Norte 13 Norte 0 1005.8 0.7 62
2019-06-06 07:00:00 13.7 9 Norte 18 Norte 0 1005.5 0.8 67
2019-06-06 06:00:00 12.8 14 Norte 18 Norte 0 1005.2 0.8 63
2019-06-06 05:00:00 13 14 Noroeste 18 Norte 0 1005.1 1.1 62
2019-06-06 04:00:00 13.7 9 Norte 17 Norte 0 1004.7 1 58
2019-06-06 03:00:00 14.3 10 Noroeste 22 Oeste 0 1004.4 0.7 56
2019-06-06 02:00:00 16.6 17 Oeste 24 Oeste 0 1004 0.9 49
2019-06-06 01:00:00 17.5 14 Oeste 28 Oeste 0 1003.7 2.1 46
2019-06-06 00:00:00 17.5 14 Oeste 32 Oeste 0 1003.7 2.8 47
2019-06-05 23:00:00 18.7 6 Sur 22 Noroeste 0 1003.1 3.1 44
2019-06-05 22:00:00 19.8 14 Noroeste 32 Noroeste 0 1001.6 2.7 43
2019-06-05 21:00:00 21.2 15 Noroeste 54 Oeste 0 1000.9 2.3 39
2019-06-05 20:00:00 22.1 31 Oeste 54 Oeste 0 1000 1.1 40
2019-06-05 19:00:00 22.2 27 Noroeste 50 Oeste 0 998.9 0.3 40
2019-06-05 18:00:00 22.3 32 Oeste 52 Oeste 0 998.6 -0.3 39
2019-06-05 17:00:00 22.1 38 Oeste 58 Oeste 0 998.9 0.9 40
2019-06-05 16:00:00 21.7 27 Oeste 54 Oeste 0 998.6 0.8 45
2019-06-05 15:00:00 21.7 31 Oeste 50 Oeste 0 998.9 1.1 53
2019-06-05 14:00:00 23.9 18 Oeste 32 Oeste 0 998 0.1 57
2019-06-05 13:00:00 21.8 7 Sur 21 Noroeste 0 997.8 0.1 73
2019-06-05 12:00:00 20.7 5 Este 24 Este 0 997.8 0.2 77
2019-06-05 11:00:00 22.3 16 Sudeste 24 Sudeste 0 997.9 0.3 69
2019-06-05 10:00:00 21.8 11 Este 21 Este 0 997.7 -0.1 71
2019-06-05 09:00:00 20.2 13 Este 18 Este 0 997.6 -0.4 79
2019-06-05 08:00:00 20.2 6 Este 11 Este 0 997.6 -0.9 79
2019-06-05 07:00:00 18.3 7 Nordeste 11 Nordeste 0 997.8 -1.1 88
2019-06-05 06:00:00 17.6 10 Este 13 Este 0 998 -1.5 93
2019-06-05 05:00:00 18.5 8 Nordeste 9 Nordeste 0 998.5 -1.5 91
2019-06-05 04:00:00 18.7 8 Nordeste 13 Nordeste 0 998.9 -1.7 90
2019-06-05 03:00:00 18.5 10 Nordeste 13 Nordeste 0 999.5 -1.5 92
2019-06-05 02:00:00 18.4 9 Nordeste 15 Nordeste 0 1000 -1 92
2019-06-05 01:00:00 18.1 9 Nordeste 13 Nordeste 0 1000.6 -0.2 94
2019-06-05 00:00:00 18.1 9 Nordeste 13 Este 0 1001 0 93
2019-06-04 23:00:00 18.4 8 Nordeste 9 Nordeste 0 1001 -0.1 92
2019-06-04 22:00:00 18.7 6 Este 13 Sudeste 0 1000.8 -0.4 89
2019-06-04 21:00:00 20.1 6 Este 17 Este 0 1001 -0.8 84
2019-06-04 20:00:00 21.5 11 Sudeste 18 Sudeste 0 1001.1 -1.1 76
2019-06-04 19:00:00 22.7 10 Sudeste 24 Sudeste 0 1001.2 -1.5 70
2019-06-04 18:00:00 23.2 10 Sudeste 22 Sudeste 0 1001.8 -1.4 68
2019-06-04 17:00:00 23.1 13 Sudeste 24 Sudeste 0 1002.2 -1.5 67
2019-06-04 16:00:00 23.5 13 Sudeste 26 Sur 0 1002.7 -1.6 67
2019-06-04 15:00:00 24.1 15 Sudeste 28 Sur 0 1003.2 -1.3 66
2019-06-04 14:00:00 24 15 Sudeste 24 Sur 0 1003.7 -0.8 65
2019-06-04 13:00:00 23.9 12 Sur 22 Sur 0 1004.3 -0.3 65
2019-06-04 12:00:00 24.1 10 Sur 22 Sur 0 1004.5 -0.1 64
2019-06-04 11:00:00 23.2 9 Sudeste 22 Sur 0 1004.5 0.3 67
2019-06-04 10:00:00 21.9 5 Sur 11 Sur 0 1004.6 0.4 70
2019-06-04 09:00:00 20.1 5 Nordeste 11 Norte 0 1004.6 0.2 83
2019-06-04 08:00:00 18.4 9 Norte 13 Norte 0 1004.2 -0.4 88
2019-06-04 07:00:00 16.5 9 Norte 13 Norte 0 1004.2 -0.9 94
2019-06-04 06:00:00 15.3 8 Norte 11 Norte 0 1004.4 -1.2 94
2019-06-04 05:00:00 15.5 9 Norte 15 Norte 0 1004.6 -1.8 90
2019-06-04 04:00:00 16.1 10 Norte 13 Norte 0 1005.1 -1.7 85
2019-06-04 03:00:00 15.9 8 Norte 11 Norte 0 1005.6 -1.7 89
2019-06-04 02:00:00 16.6 6 Norte 9 Norte 0 1006.4 -1.1 87
2019-06-04 01:00:00 17.4 5 Norte -- -- 0 1006.8 -0.5 87
2019-06-04 00:00:00 18 0 Calma -- -- 0 1007.3 0.1 91
2019-06-03 23:00:00 -- -- -- -- -- 0 1007.5 0.1 --
2019-06-03 22:00:00 18.7 6 Sur 9 Sur 0 1007.3 -0.2 85
2019-06-03 21:00:00 20.6 7 Sur 17 Sur 0 1007.2 -1.1 64
2019-06-03 20:00:00 22.7 11 Sudoeste 15 Sudoeste 0 1007.4 -0.8 54
2019-06-03 19:00:00 23.2 10 Sur 21 Sur 0 1007.5 -1 57
2019-06-03 18:00:00 22.6 15 Sur 28 Sudoeste 0 1008.3 -0.7 56
2019-06-03 17:00:00 24.5 16 Sur 26 Sur 0 1008.2 -1 52
2019-06-03 16:00:00 24.1 17 Sur 30 Sudoeste 0 1008.5 -1 48
2019-06-03 15:00:00 24.3 15 Sur 28 Sur 0 1009 -0.4 59
2019-06-03 14:00:00 24.5 14 Sur 26 Sudoeste 0 1009.2 0.1 50
2019-06-03 13:00:00 24 14 Sur 26 Sur 0 1009.5 0.2 64
2019-06-03 12:00:00 24.1 11 Sudoeste 22 Sudoeste 0 1009.4 0 49
2019-06-03 11:00:00 23.5 10 Sur 21 Sur 0 1009.1 0 54
2019-06-03 10:00:00 22.1 11 Sudoeste 21 Sur 0 1009.3 0.3 61
2019-06-03 09:00:00 20.5 4 Sudeste 9 Sudeste 0 1009.4 0.6 70
2019-06-03 08:00:00 18 4 Este 11 Norte 0 1009.1 0.1 70
2019-06-03 07:00:00 14.3 10 Norte 11 Norte 0 1009 -0.1 80
2019-06-03 06:00:00 14.2 8 Norte 13 Norte 0 1008.8 -0.5 80
2019-06-03 05:00:00 14.6 12 Norte 13 Norte 0 1009 -0.9 81
2019-06-03 04:00:00 15.1 0 Calma 4 Noroeste 0 1009.1 -1.1 79
2019-06-03 03:00:00 15.1 2 Sudoeste 5 Sudoeste 0 1009.3 -0.9 80
2019-06-03 02:00:00 14.8 3 Sudoeste 5 Sudoeste 0 1009.9 -0.3 85
2019-06-03 01:00:00 15.9 0 Calma 5 Norte 0 1010.2 0.5 77
2019-06-03 00:00:00 16.8 4 Norte 5 Norte 0 1010.2 0.6 78
2019-06-02 23:00:00 17.4 0 Calma 9 Oeste 0 1010.2 0.8 76
2019-06-02 22:00:00 18.1 6 Sudoeste 13 Sudoeste 0 1009.7 0.3 75
2019-06-02 21:00:00 20.4 9 Sudoeste 15 Sur 0 1009.6 0.1 60
2019-06-02 20:00:00 22.8 12 Sudoeste 22 Sudoeste 0 1009.4 -0.3 42
2019-06-02 19:00:00 23.5 17 Sudoeste 30 Sudoeste 0 1009.4 -0.9 37
2019-06-02 18:00:00 23.9 19 Sur 30 Sudoeste 0 1009.5 -1 42
2019-06-02 17:00:00 24.4 19 Sudoeste 30 Sudoeste 0 1009.7 -1.5 40
2019-06-02 16:00:00 24.6 18 Sur 28 Sudoeste 0 1010.3 -1.1 42
2019-06-02 15:00:00 24.3 16 Sur 28 Sur 0 1010.5 -0.9 48
2019-06-02 14:00:00 23.9 17 Sudoeste 28 Sur 0 1011.2 0 51
2019-06-02 13:00:00 23.8 17 Sur 30 Sur 0 1011.4 0.4 52
2019-06-02 12:00:00 23.9 15 Sudoeste 24 Sudoeste 0 1011.4 0.5 48
2019-06-02 11:00:00 23.3 14 Sudoeste 28 Sur 0 1011.2 0.5 46
2019-06-02 10:00:00 22.2 10 Sur 21 Sur 0 1011 0.5 63
2019-06-02 09:00:00 21.3 6 Sudeste 11 Sudeste 0 1010.9 0.5 57
2019-06-02 08:00:00 18.3 4 Norte 9 Norte 0 1010.7 0.2 66
2019-06-02 07:00:00 15.3 5 Norte 13 Norte 0 1010.5 -0.5 75
2019-06-02 06:00:00 14.7 7 Norte 11 Norte 0 1010.4 -1.1 84
2019-06-02 05:00:00 15 10 Norte 11 Norte 0 1010.5 -1.5 86
2019-06-02 04:00:00 15.3 3 Norte 13 Norte 0 1011 -1.3 86
2019-06-02 03:00:00 15.7 10 Norte -- -- 0 1011.5 -1 89
2019-06-02 02:00:00 16.1 5 Noroeste 9 Noroeste 0 1012 -0.4 89
2019-06-02 01:00:00 17 3 Oeste -- -- 0 1012.3 0.6 88
2019-06-02 00:00:00 17.1 3 Sudoeste 8 Sur 0 1012.5 1.1 84
2019-06-01 23:00:00 16.7 8 Sur -- -- 0 1012.4 1 83
2019-06-01 22:00:00 17.9 7 Sur 11 Sur 0 1011.7 0.2 79
2019-06-01 21:00:00 20.4 10 Sur 15 Sur 0 1011.4 -0.4 67
2019-06-01 20:00:00 22.1 10 Sur 21 Sur 0 1011.4 -0.7 56
2019-06-01 19:00:00 23.3 13 Sur 22 Sudoeste 0 1011.5 -1 47
2019-06-01 18:00:00 23.7 15 Sudoeste 24 Sur 0 1011.8 -1 43
2019-06-01 17:00:00 23.7 17 Sur 26 Sur 0 1012.1 -1.3 42
2019-06-01 16:00:00 24 19 Sur 28 Sudoeste 0 1012.5 -1.2 45
2019-06-01 15:00:00 23.8 18 Sur 28 Sudoeste 0 1012.8 -0.8 49
2019-06-01 14:00:00 24.1 18 Sur 32 Sudoeste 0 1013.4 -0.2 51
2019-06-01 13:00:00 24.2 18 Sur 30 Sur 0 1013.7 0 48
2019-06-01 12:00:00 24.3 15 Sur 26 Sur 0 1013.6 0 48
2019-06-01 11:00:00 23.6 10 Sur 17 Sur 0 1013.6 0.2 56
2019-06-01 10:00:00 21.8 6 Sudeste 13 Sur 0 1013.7 0.8 65
2019-06-01 09:00:00 19.7 4 Este 9 Este 0 1013.6 1.1 68
2019-06-01 08:00:00 17.5 8 Nordeste 11 Nordeste 0 1013.4 0.7 69
2019-06-01 07:00:00 14.3 5 Norte 8 Norte 0 1012.9 -0.2 84
2019-06-01 06:00:00 14 6 Norte -- -- 0 1012.5 -0.9 85
2019-06-01 05:00:00 14.6 5 Noroeste 11 Norte 0 1012.7 -1.3 83
2019-06-01 04:00:00 15.6 9 Norte 13 Norte 0 1013.1 -1.4 82
2019-06-01 03:00:00 15.6 10 Norte 11 Norte 0 1013.4 -1.2 86
2019-06-01 02:00:00 15.9 -- -- -- -- 0 1014 -0.3 88
2019-06-01 01:00:00 16.6 3 Noroeste 9 Noroeste 0 1014.5 0.5 89
2019-06-01 00:00:00 16.6 0 Calma 8 Sur 0 1014.6 0.8 89
2019-05-31 23:00:00 16.8 6 Sur 11 Sur 0 1014.3 0.2 89
2019-05-31 22:00:00 17.6 9 Sur 13 Sudoeste 0 1014 -0.5 85
2019-05-31 21:00:00 20 12 Sudoeste 18 Sudoeste 0 1013.8 -0.6 71
2019-05-31 20:00:00 21.6 13 Sudoeste 22 Sudoeste 0 1014.1 -0.6 57
2019-05-31 19:00:00 22.5 16 Sudoeste 26 Sudoeste 0 1014.5 -0.5 40
2019-05-31 18:00:00 23.2 15 Sudoeste 26 Sur 0 1014.4 -0.7 43
2019-05-31 17:00:00 23.3 14 Sur 22 Sur 0 1014.7 -0.7 47
2019-05-31 16:00:00 23.4 12 Sur 24 Sur 0 1015 -0.6 51
2019-05-31 15:00:00 23.8 14 Sur 28 Sur 0 1015.1 -0.3 53
2019-05-31 14:00:00 23.9 17 Sur 26 Sur 0 1015.4 0 53
2019-05-31 13:00:00 23.2 17 Sur 26 Sudeste 0 1015.6 -0.1 56
2019-05-31 12:00:00 24.7 17 Sur 26 Sudoeste 0 1015.4 -0.1 35
2019-05-31 11:00:00 24.1 14 Sudoeste 26 Sudoeste 0 1015.4 -0.1 41
2019-05-31 10:00:00 22.4 10 Sudoeste 15 Sudoeste 0 1015.7 0.3 42
2019-05-31 09:00:00 19.6 2 Este 9 Este 0 1015.5 0.1 67
2019-05-31 08:00:00 16.5 3 Norte 13 Norte 0 1015.5 -0.1 80
2019-05-31 07:00:00 13.9 10 Norte 13 Norte 0 1015.4 -0.4 91
2019-05-31 06:00:00 -- 9 Noroeste 13 Norte 0 1015.4 -0.7 --
2019-05-31 05:00:00 15.6 8 Norte 11 Norte 0 1015.6 -0.7 94
2019-05-31 04:00:00 16.1 4 Nordeste 8 Nordeste 0 1015.8 -0.8 95
2019-05-31 03:00:00 15.8 7 Norte 11 Norte 0 1016.1 -0.6 95
2019-05-31 02:00:00 15.2 10 Norte -- -- 0 1016.3 -0.4 90
2019-05-31 01:00:00 15.7 7 Norte 8 Norte 0 1016.6 0.8 91
2019-05-31 00:00:00 16.2 2 Sudeste 4 Sur 0 1016.7 1.6 93
2019-05-30 23:00:00 16.6 0 Calma 8 Sudoeste 0 1016.7 2 91
2019-05-30 22:00:00 17 5 Sudoeste 13 Sur 0 1015.8 1.1 87
2019-05-30 21:00:00 19.2 9 Sur 15 Sur 0 1015.1 0.3 71
2019-05-30 20:00:00 20.9 12 Sur 21 Sudoeste 0 1014.7 -0.4 53
2019-05-30 19:00:00 21.7 12 Sur 21 Sur 0 1014.7 -0.5 50
2019-05-30 18:00:00 22.5 13 Sur 22 Sur 0 1014.8 -0.7 46
2019-05-30 17:00:00 22.4 13 Sur 22 Sur 0 1015.1 -0.5 52
2019-05-30 16:00:00 22.8 10 Sudoeste 24 Sur 0 1015.2 -0.6 50
2019-05-30 15:00:00 22.5 14 Sur 24 Sur 0 1015.5 -0.4 56
2019-05-30 14:00:00 22.4 14 Sur 24 Sudeste 0 1015.6 -0.2 50
2019-05-30 13:00:00 22.2 15 Sudeste 26 Sudeste 0 1015.8 0 48
2019-05-30 12:00:00 21.9 13 Sur 22 Sur 0 1015.9 0.1 47
2019-05-30 11:00:00 21.4 11 Sur 17 Sudeste 0 1015.8 0.3 52
2019-05-30 10:00:00 20.2 3 Sur 11 Sudeste 0 1015.8 0.6 51
2019-05-30 09:00:00 17.9 4 Sudoeste 9 Oeste 0 1015.8 1.1 59
2019-05-30 08:00:00 14.6 4 Norte 8 Norte 0 1015.5 0.9 80
2019-05-30 07:00:00 11.6 6 Nordeste 9 Nordeste 0 1015.2 0.6 93
2019-05-30 06:00:00 11.9 3 Norte 13 Norte 0 1014.7 -0.2 91
2019-05-30 05:00:00 12.7 9 Norte 13 Norte 0 1014.6 -0.5 94
2019-05-30 04:00:00 13.6 9 Noroeste 11 Noroeste 0 1014.6 -0.4 92
2019-05-30 03:00:00 14.5 9 Norte 13 Norte 0 1014.9 0.2 89
2019-05-30 02:00:00 14.9 11 Norte 13 Norte 0 1015.1 -- 90
2019-05-30 01:00:00 15.5 6 Nordeste 11 Nordeste 0 1015 1.7 89
2019-05-30 00:00:00 15.1 8 Nordeste -- -- -- 1014.7 2.3 90
2019-05-29 23:00:00 -- -- -- -- -- -- -- -- --
2019-05-29 22:00:00 16.7 10 Este 17 Este 0 1013.3 3.1 82
2019-05-29 21:00:00 17.8 12 Este 18 Sudeste 0 1012.4 3 79
2019-05-29 20:00:00 19.3 13 Sur 22 Sur 0 1011.2 1.9 68
2019-05-29 19:00:00 20.4 15 Sudeste 32 Este 0 1010.2 0.6 67
2019-05-29 18:00:00 22.6 22 Sudeste 33 Sudeste 0 1009.4 -0.5 56
2019-05-29 17:00:00 26.5 12 Norte 37 Oeste 0 1009.3 -1.1 26
2019-05-29 16:00:00 26.3 18 Oeste 37 Oeste 0 1009.6 -1 25
2019-05-29 15:00:00 25.5 14 Oeste 42 Oeste 0 1009.9 -1.3 28
2019-05-29 14:00:00 24.5 19 Oeste 45 Oeste 0 1010.4 -1.2 31
2019-05-29 13:00:00 23.1 18 Sudoeste 32 Sudoeste 0 1010.6 -1.1 37
2019-05-29 12:00:00 21.7 15 Oeste 33 Oeste 0 1011.2 0.1 40
2019-05-29 11:00:00 20.1 22 Oeste 35 Oeste 0 1011.6 0.7 45
2019-05-29 10:00:00 18.2 21 Oeste 32 Oeste 0 1011.7 1.6 49
2019-05-29 09:00:00 16.8 25 Oeste 30 Noroeste 0 1011.1 1.5 52
2019-05-29 08:00:00 14.7 14 Noroeste 22 Noroeste 0 1010.9 1.7 58
2019-05-29 07:00:00 12.3 7 Noroeste 18 Noroeste 0 1010.1 1.2 65
2019-05-29 06:00:00 12.9 6 Oeste 17 Noroeste 0 1009.6 0.9 62
2019-05-29 05:00:00 13.3 14 Oeste 24 Oeste 0 1009.2 1 60
2019-05-29 04:00:00 14.7 17 Oeste 28 Oeste 0 1008.9 0.6 55
2019-05-29 03:00:00 14.9 11 Oeste 26 Oeste 0 1008.7 0.9 54
2019-05-29 02:00:00 15.9 20 Oeste 32 Oeste 0 1008.2 0.6 50
2019-05-29 01:00:00 16.1 12 Noroeste 39 Oeste 0 1008.3 1.1 79
2019-05-29 00:00:00 16.2 15 Oeste 28 Oeste 0 1007.8 1.4 53
2019-05-28 23:00:00 16.2 4 Nordeste 11 Este 0 1007.6 2.1 90
2019-05-28 22:00:00 16.2 9 Nordeste 17 Este 0 1007.2 2.5 89
2019-05-28 21:00:00 17.2 12 Este 30 Este 0 1006.4 2.2 82
2019-05-28 20:00:00 18.6 17 Este 30 Este 0 1005.5 2.2 77
2019-05-28 19:00:00 21 18 Este 41 Este 0 1004.7 1.2 63
2019-05-28 18:00:00 23.6 23 Este 50 Oeste 0 1004.2 0.5 51
2019-05-28 17:00:00 26.3 25 Oeste 41 Oeste 0 1003.3 -0.6 33
2019-05-28 16:00:00 25.8 28 Oeste 42 Oeste 0 1003.5 -0.9 34
2019-05-28 15:00:00 25.1 25 Oeste 42 Oeste 0 1003.7 -0.8 36
2019-05-28 14:00:00 23.9 29 Oeste 50 Oeste 0 1003.9 -0.5 38
2019-05-28 13:00:00 22.8 31 Oeste 54 Oeste 0 1004.4 -0.2 41
2019-05-28 12:00:00 21.3 32 Oeste 48 Oeste 0 1004.5 0.1 43
2019-05-28 11:00:00 19.9 22 Oeste 41 Oeste 0 1004.4 0.4 47
2019-05-28 10:00:00 17.6 28 Oeste 41 Oeste 0 1004.6 1.2 51
2019-05-28 09:00:00 16.5 29 Oeste 41 Oeste 0 1004.4 1.2 54
2019-05-28 08:00:00 15.3 31 Oeste 46 Oeste 0 1004 0.8 57
2019-05-28 07:00:00 14.8 32 Oeste 50 Oeste 0 1003.4 0.2 59
2019-05-28 06:00:00 15.2 30 Oeste 42 Oeste 0 1003.2 -0.5 61
2019-05-28 05:00:00 15.6 30 Oeste 45 Oeste 0 1003.2 -0.5 60
2019-05-28 04:00:00 15.5 20 Oeste 30 Oeste 0 1003.2 -0.7 61
2019-05-28 03:00:00 15.9 7 Noroeste 26 Norte 0 1003.7 -0.1 90
2019-05-28 02:00:00 15.8 9 Norte 13 Norte 0 1003.7 0.5 93
2019-05-28 01:00:00 16.1 8 Nordeste 13 Nordeste 0 1003.9 1.4 91
2019-05-28 00:00:00 16 8 Nordeste 13 Nordeste 0 1003.8 1.9 91